Time;durP1;ratioP1;P1;durP2;ratioP2;P2;SDS_P1;SDS_P2;PMS_P1;PMS_P2;Temp;Humidity;BMP_temperature;BMP_pressure;BME280_temperature;BME280_humidity;BME280_pressure;Samples;Min_cycle;Max_cycle;Signal;HPM_P1;HPM_P2
2022/01/19 00:01:07;;;;;;;15.27;5.62;;;;;;;2.69;56.27;100352.28;4485282;31;73682;-84
2022/01/19 00:03:32;;;;;;;16.90;5.20;;;;;;;2.72;56.22;100355.75;4474644;31;20174;-84
2022/01/19 00:05:58;;;;;;;21.67;5.15;;;;;;;2.75;56.09;100358.34;4501950;31;20083;-84
2022/01/19 00:08:25;;;;;;;21.25;5.35;;;;;;;2.89;55.76;100362.72;4487685;31;20359;-84
2022/01/19 00:10:51;;;;;;;17.30;5.40;;;;;;;2.75;55.91;100365.28;4488080;31;20140;-84
2022/01/19 00:13:17;;;;;;;19.02;5.45;;;;;;;2.91;55.49;100372.25;4502535;31;20499;-83
2022/01/19 00:15:43;;;;;;;21.65;5.75;;;;;;;2.93;55.40;100378.34;4475309;31;20122;-86
2022/01/19 00:18:09;;;;;;;20.45;5.37;;;;;;;2.88;55.55;100377.47;4488238;31;20490;-85
2022/01/19 00:20:35;;;;;;;18.85;5.15;;;;;;;2.85;55.53;100376.59;4488208;31;20155;-86
2022/01/19 00:23:03;;;;;;;15.75;4.78;;;;;;;2.69;55.88;100380.91;4488182;31;20195;-87
2022/01/19 00:25:29;;;;;;;17.05;4.90;;;;;;;2.88;55.43;100374.00;4502650;31;20088;-83
2022/01/19 00:27:55;;;;;;;17.25;4.87;;;;;;;2.99;55.02;100374.88;4488187;31;20085;-83
2022/01/19 00:30:20;;;;;;;20.45;5.35;;;;;;;2.99;54.90;100382.69;4488105;31;20135;-83
2022/01/19 00:32:46;;;;;;;17.62;5.25;;;;;;;2.97;54.92;100396.56;4502404;31;20115;-83
2022/01/19 00:35:12;;;;;;;19.00;5.72;;;;;;;3.04;54.56;100386.19;4502407;31;20176;-83
2022/01/19 00:37:40;;;;;;;19.52;5.47;;;;;;;2.87;54.98;100388.75;4488112;31;20190;-83
2022/01/19 00:40:06;;;;;;;17.30;4.93;;;;;;;2.98;54.58;100399.19;4501321;31;20164;-82
2022/01/19 00:42:32;;;;;;;17.58;5.53;;;;;;;3.04;54.36;100399.19;4474833;31;20116;-83
2022/01/19 00:44:58;;;;;;;19.58;5.05;;;;;;;3.02;54.27;100397.47;4502146;31;20375;-83
2022/01/19 00:47:23;;;;;;;16.85;4.70;;;;;;;2.87;54.67;100393.09;4487920;31;20151;-83
2022/01/19 00:49:49;;;;;;;17.23;5.70;;;;;;;2.88;54.52;100389.63;4487872;31;20480;-83
2022/01/19 00:52:14;;;;;;;20.12;5.18;;;;;;;2.94;54.46;100406.13;4487876;31;20127;-83
2022/01/19 00:54:41;;;;;;;17.20;5.07;;;;;;;2.99;54.36;100405.25;4487925;31;20087;-83
2022/01/19 00:57:07;;;;;;;15.38;4.40;;;;;;;2.92;54.61;100392.22;4502100;31;20084;-83
2022/01/19 00:59:33;;;;;;;18.92;4.97;;;;;;;3.07;54.18;100399.22;4487776;31;20096;-84
2022/01/19 01:02:01;;;;;;;17.98;5.00;;;;;;;3.09;54.12;100396.59;4502139;31;20584;-83
2022/01/19 01:04:26;;;;;;;19.40;5.03;;;;;;;3.16;53.94;100390.53;4487585;31;20099;-83
2022/01/19 01:06:52;;;;;;;16.87;5.25;;;;;;;3.04;54.13;100388.78;4502010;31;20458;-82
2022/01/19 01:09:18;;;;;;;17.92;5.60;;;;;;;3.15;53.83;100383.59;4501888;31;20092;-82
2022/01/19 01:12:09;;;;;;;16.92;4.87;;;;;;;3.17;53.64;100383.59;4474495;31;20104;-83
2022/01/19 01:20:06;;;;;;;23.08;5.10;;;;;;;3.18;53.36;100374.91;4489673;31;20241;-83
2022/01/19 01:22:32;;;;;;;13.80;4.87;;;;;;;3.18;53.21;100356.69;4487363;31;20175;-83
2022/01/19 01:24:57;;;;;;;16.90;4.68;;;;;;;3.09;53.35;100358.44;4487279;31;20092;-83
2022/01/19 01:27:22;;;;;;;16.25;4.80;;;;;;;3.09;53.26;100361.03;4501632;31;20080;-83
2022/01/19 01:29:48;;;;;;;14.90;4.18;;;;;;;3.13;53.10;100359.31;4487279;31;20122;-83
2022/01/19 01:32:13;;;;;;;14.98;4.85;;;;;;;3.15;53.02;100352.34;4487310;31;20096;-84
2022/01/19 01:34:39;;;;;;;18.25;4.35;;;;;;;3.17;52.98;100336.72;4501606;31;20321;-83
2022/01/19 01:37:04;;;;;;;16.75;4.50;;;;;;;3.17;53.14;100323.69;4501504;31;20131;-84
2022/01/19 01:39:30;;;;;;;14.43;4.32;;;;;;;3.13;53.21;100302.88;4501510;31;20076;-83
2022/01/19 01:41:55;;;;;;;14.63;4.70;;;;;;;3.15;53.21;100308.94;4501479;31;20115;-83
2022/01/19 01:44:21;;;;;;;15.98;4.72;;;;;;;3.17;53.19;100319.38;4487208;31;20107;-83
2022/01/19 01:46:50;;;;;;;17.10;4.50;;;;;;;3.15;53.05;100310.69;4501422;31;20083;-84
2022/01/19 01:49:39;;;;;;;19.62;5.00;;;;;;;3.19;52.97;100320.25;4501481;31;20085;-84
2022/01/19 01:54:49;;;;;;;18.98;4.70;;;;;;;3.12;52.87;100315.88;4503923;31;20106;-84
2022/01/19 01:57:14;;;;;;;17.25;4.37;;;;;;;3.11;52.73;100309.81;4489383;31;20076;-84
2022/01/19 01:59:40;;;;;;;20.37;4.93;;;;;;;3.01;52.83;100307.19;4503533;31;20188;-82
2022/01/19 02:02:05;;;;;;;17.08;4.90;;;;;;;3.06;52.67;100305.47;4503706;31;20114;-83
2022/01/19 02:04:33;;;;;;;18.20;5.15;;;;;;;3.08;52.56;100308.94;4488856;31;20085;-83
2022/01/19 02:07:30;;;;;;;15.90;4.68;;;;;;;3.06;52.57;100303.72;4503740;31;20147;-83
2022/01/19 02:09:53;;;;;;;17.85;4.75;;;;;;;3.07;52.49;100302.88;4503332;31;20153;-82
2022/01/19 02:23:27;;;;;;;18.45;5.03;;;;;;;3.03;52.73;100287.22;4491336;31;20117;-83
2022/01/19 02:25:56;;;;;;;14.98;4.35;;;;;;;3.04;52.81;100282.03;4490231;31;20100;-83
2022/01/19 02:41:34;;;;;;;17.37;4.78;;;;;;;2.89;51.86;100272.47;4503476;31;20131;-83
2022/01/19 02:43:59;;;;;;;14.35;3.78;;;;;;;2.83;52.04;100272.47;4489311;31;20198;-83
2022/01/19 02:49:20;;;;;;;15.38;4.35;;;;;;;2.86;51.61;100269.88;4491290;31;20137;-83
2022/01/19 02:51:50;;;;;;;14.55;4.10;;;;;;;2.69;52.00;100272.47;4476904;31;20184;-83
2022/01/19 02:54:21;;;;;;;17.30;5.03;;;;;;;2.74;52.12;100264.66;4503342;31;20088;-83
2022/01/19 02:56:51;;;;;;;13.25;3.97;;;;;;;2.77;52.23;100253.41;4489245;31;20084;-83
2022/01/19 02:59:31;;;;;;;14.63;4.12;;;;;;;2.75;52.36;100254.25;4503397;31;20111;-83
2022/01/19 03:10:09;;;;;;;15.25;4.25;;;;;;;2.27;54.02;100255.91;4503332;31;20102;-83
2022/01/19 03:12:34;;;;;;;15.18;4.68;;;;;;;2.27;54.04;100250.69;4503200;31;20147;-83
2022/01/19 03:15:00;;;;;;;18.33;4.50;;;;;;;2.20;54.06;100248.09;4488783;31;20108;-84
2022/01/19 03:17:25;;;;;;;17.30;4.65;;;;;;;2.10;54.13;100242.84;4503202;31;20122;-83
2022/01/19 03:19:51;;;;;;;18.33;4.87;;;;;;;2.03;54.44;100245.41;4502961;31;20116;-83
2022/01/19 03:22:19;;;;;;;15.82;4.80;;;;;;;2.16;54.16;100236.81;4503161;31;20138;-83
2022/01/19 03:24:50;;;;;;;15.65;4.22;;;;;;;2.28;54.03;100239.44;4489036;31;20171;-83
2022/01/19 03:27:16;;;;;;;15.23;4.28;;;;;;;2.37;53.82;100226.44;4503096;31;20105;-83
2022/01/19 03:29:41;;;;;;;14.70;4.62;;;;;;;2.45;53.59;100223.84;4503015;31;20373;-83
2022/01/19 03:32:08;;;;;;;13.43;4.53;;;;;;;2.47;53.47;100227.34;4503001;31;20164;-83
2022/01/19 03:34:33;;;;;;;15.43;5.25;;;;;;;2.47;53.44;100227.34;4503023;31;20122;-83
2022/01/19 03:36:59;;;;;;;17.12;4.97;;;;;;;2.24;54.01;100229.91;4502922;31;20083;-84
2022/01/19 03:39:24;;;;;;;20.52;5.00;;;;;;;2.43;53.61;100238.59;4502947;31;20103;-83
2022/01/19 03:41:50;;;;;;;16.52;5.50;;;;;;;2.45;53.59;100233.41;4475493;31;20491;-83
2022/01/19 03:44:15;;;;;;;20.23;5.07;;;;;;;2.44;53.84;100236.87;4502789;31;20132;-83
2022/01/19 03:46:54;;;;;;;16.90;5.43;;;;;;;2.43;54.00;100246.41;4503024;31;20106;-83
2022/01/19 03:49:24;;;;;;;19.60;5.75;;;;;;;2.26;54.56;100246.38;4488536;31;20430;-83
2022/01/19 03:52:02;;;;;;;17.67;4.72;;;;;;;2.40;54.49;100245.56;4489033;31;20157;-83
2022/01/19 03:54:36;;;;;;;19.90;4.97;;;;;;;2.41;54.52;100242.06;4503029;31;20110;-83
2022/01/19 03:57:02;;;;;;;15.75;5.07;;;;;;;2.49;54.36;100240.34;4502982;31;20088;-83
2022/01/19 03:59:30;;;;;;;15.82;4.70;;;;;;;2.52;54.22;100236.00;4502725;31;20080;-83
2022/01/19 04:01:57;;;;;;;15.90;4.72;;;;;;;2.56;54.06;100236.91;4488444;31;20463;-83
2022/01/19 04:09:17;;;;;;;27.48;5.93;;;;;;;2.67;53.41;100242.12;4488814;31;20171;-84
2022/01/19 04:11:43;;;;;;;17.75;5.00;;;;;;;2.46;53.81;100241.22;4502729;31;20100;-83
2022/01/19 04:16:34;;;;;;;18.00;6.15;;;;;;;2.53;53.92;100242.97;4502624;31;20091;-83
2022/01/19 04:19:22;;;;;;;17.12;5.37;;;;;;;2.45;54.26;100239.47;4488221;31;20459;-83
2022/01/19 04:21:49;;;;;;;32.50;6.37;;;;;;;2.50;54.20;100232.53;4502592;31;20100;-83
2022/01/19 04:24:15;;;;;;;17.47;4.93;;;;;;;2.54;54.22;100228.22;4475056;31;20249;-83
2022/01/19 04:26:40;;;;;;;16.50;5.18;;;;;;;2.58;54.07;100231.69;4488178;31;20163;-83
2022/01/19 04:29:06;;;;;;;18.60;4.47;;;;;;;2.64;53.80;100234.31;4488128;31;20084;-84
2022/01/19 04:31:32;;;;;;;16.02;5.78;;;;;;;2.66;53.71;100232.56;4502410;31;20131;-83
2022/01/19 04:34:02;;;;;;;22.00;5.53;;;;;;;2.63;53.76;100227.37;4502496;31;20100;-84
2022/01/19 04:36:33;;;;;;;19.92;5.60;;;;;;;2.64;53.83;100216.94;4488159;31;20091;-84
2022/01/19 05:06:16;;;;;;;16.73;5.68;;;;;;;2.34;54.95;100203.06;4406373;32;20129;-83
2022/01/19 05:13:52;;;;;;;23.25;5.90;;;;;;;2.52;54.61;100190.94;4406527;32;20136;-83
2022/01/19 05:16:21;;;;;;;18.73;6.12;;;;;;;2.50;54.67;100188.31;4406391;32;20290;-83
2022/01/19 05:18:48;;;;;;;16.85;5.32;;;;;;;2.56;54.53;100177.91;4393932;32;20453;-83
2022/01/19 05:21:14;;;;;;;15.38;5.70;;;;;;;2.47;54.65;100188.34;4406276;32;20118;-84
2022/01/19 05:23:39;;;;;;;18.33;6.12;;;;;;;2.53;54.38;100184.84;4406328;32;20547;-83
2022/01/19 05:26:05;;;;;;;17.37;5.45;;;;;;;2.43;54.43;100194.38;4400670;32;20105;-83
2022/01/19 05:28:30;;;;;;;19.75;5.75;;;;;;;2.35;54.65;100190.91;4439164;32;20510;-83
2022/01/19 05:30:56;;;;;;;16.15;5.85;;;;;;;2.25;54.81;100205.63;4413303;32;20125;-84
2022/01/19 05:33:21;;;;;;;19.75;5.80;;;;;;;2.30;54.71;100198.72;4438941;32;20173;-83
2022/01/19 05:35:46;;;;;;;17.52;6.28;;;;;;;2.41;54.48;100200.47;4439014;32;20174;-83
2022/01/19 05:38:12;;;;;;;20.33;5.87;;;;;;;2.30;54.55;100200.47;4426240;32;20194;-84
2022/01/19 05:40:37;;;;;;;18.62;5.93;;;;;;;2.43;54.25;100196.97;4426060;32;20156;-83
2022/01/19 05:43:03;;;;;;;17.33;5.37;;;;;;;2.47;54.13;100195.25;4482756;31;20349;-84
2022/01/19 05:45:29;;;;;;;22.73;6.30;;;;;;;2.50;54.06;100195.28;4489367;31;20099;-83
2022/01/19 05:47:55;;;;;;;17.35;6.18;;;;;;;2.49;54.05;100183.13;4503944;31;20138;-84
2022/01/19 05:50:20;;;;;;;20.65;5.85;;;;;;;2.48;53.99;100187.47;4489593;31;20107;-84
2022/01/19 05:52:46;;;;;;;19.48;5.70;;;;;;;2.39;54.12;100187.44;4489557;31;20112;-84
2022/01/19 05:55:11;;;;;;;21.35;5.57;;;;;;;2.47;53.84;100187.44;4503968;31;20352;-84
2022/01/19 05:57:37;;;;;;;18.37;5.65;;;;;;;2.45;53.84;100178.78;4503851;31;20113;-84
2022/01/19 06:00:05;;;;;;;23.92;7.53;;;;;;;2.41;53.89;100183.09;4489648;31;20092;-84
2022/01/19 06:02:30;;;;;;;17.83;6.05;;;;;;;2.39;54.10;100189.19;4489369;31;20108;-83
2022/01/19 06:04:56;;;;;;;20.10;5.95;;;;;;;2.32;54.36;100185.72;4503381;31;20114;-84
2022/01/19 06:07:28;;;;;;;29.85;6.47;;;;;;;2.32;54.49;100190.94;4503721;31;20087;-84
2022/01/19 06:10:03;;;;;;;19.70;6.03;;;;;;;2.34;54.53;100190.06;4489174;31;20449;-84
2022/01/19 06:12:28;;;;;;;19.37;6.03;;;;;;;2.39;54.55;100195.25;4477197;31;20104;-84
2022/01/19 06:14:54;;;;;;;20.75;6.78;;;;;;;2.39;54.44;100192.66;4489105;31;20126;-84
2022/01/19 06:17:19;;;;;;;22.10;7.03;;;;;;;2.40;54.36;100189.19;4503533;31;20083;-84
2022/01/19 06:19:48;;;;;;;20.50;6.60;;;;;;;2.04;55.71;100200.38;4489070;31;20133;-83
2022/01/19 06:22:14;;;;;;;20.00;6.32;;;;;;;2.06;55.85;100196.06;4503484;31;20114;-84
2022/01/19 06:24:40;;;;;;;20.08;6.68;;;;;;;2.21;55.51;100196.09;4503486;31;20115;-84
2022/01/19 06:27:05;;;;;;;21.95;7.60;;;;;;;2.29;55.08;100199.56;4503377;31;20087;-84
2022/01/19 06:29:34;;;;;;;20.33;6.80;;;;;;;2.24;54.97;100195.22;4489049;31;20084;-84
2022/01/19 06:32:00;;;;;;;21.55;6.93;;;;;;;2.30;54.73;100183.13;4503395;31;20104;-84
2022/01/19 06:34:25;;;;;;;23.90;7.40;;;;;;;2.40;54.43;100183.13;4503350;31;20148;-84
2022/01/19 06:36:53;;;;;;;27.30;7.03;;;;;;;2.40;54.35;100189.19;4503118;31;20087;-82
2022/01/19 06:39:21;;;;;;;21.50;7.40;;;;;;;2.36;54.65;100192.66;4502302;31;20088;-84
2022/01/19 06:41:47;;;;;;;23.33;7.07;;;;;;;2.44;54.71;100190.06;4502863;31;20444;-83
2022/01/19 06:44:14;;;;;;;25.37;7.87;;;;;;;2.35;55.19;100190.91;4488346;31;20100;-83
2022/01/19 06:46:40;;;;;;;21.92;6.37;;;;;;;2.48;54.96;100192.66;4488422;31;20406;-84
2022/01/19 06:49:06;;;;;;;21.25;6.12;;;;;;;2.39;55.23;100186.59;4502679;31;20122;-83
2022/01/19 06:51:31;;;;;;;20.40;6.57;;;;;;;2.60;55.13;100176.19;4488683;31;20363;-80
2022/01/19 06:53:58;;;;;;;21.00;7.00;;;;;;;2.64;55.12;100175.31;4503118;31;20151;-82
2022/01/19 06:56:24;;;;;;;19.70;6.60;;;;;;;2.72;54.82;100177.91;4503303;31;20083;-84
2022/01/19 06:58:49;;;;;;;23.17;6.65;;;;;;;2.79;54.35;100176.19;4503455;31;20106;-83
2022/01/19 07:01:15;;;;;;;18.92;6.25;;;;;;;2.85;54.03;100177.06;4503144;31;20111;-80
2022/01/19 07:03:40;;;;;;;20.30;6.12;;;;;;;2.92;53.83;100172.72;4502797;31;20136;-79
2022/01/19 07:06:07;;;;;;;21.40;6.90;;;;;;;2.97;53.75;100162.28;4488396;31;20146;-82
2022/01/19 07:08:33;;;;;;;19.75;6.90;;;;;;;3.01;53.69;100156.22;4503334;31;20434;-82
2022/01/19 07:10:58;;;;;;;18.92;6.60;;;;;;;3.10;53.47;100166.59;4503132;31;20142;-82
2022/01/19 07:13:24;;;;;;;21.37;6.68;;;;;;;3.19;53.25;100156.19;4502934;31;20134;-81
2022/01/19 07:15:49;;;;;;;19.87;6.72;;;;;;;3.26;53.01;100163.09;4502986;31;20139;-82
2022/01/19 07:18:15;;;;;;;24.25;6.95;;;;;;;3.31;52.72;100160.47;4502576;31;20132;-82
2022/01/19 07:20:40;;;;;;;18.40;6.28;;;;;;;3.37;52.47;100160.47;4502603;31;20122;-82
2022/01/19 07:23:06;;;;;;;21.98;6.43;;;;;;;3.43;52.43;100156.97;4502658;31;20092;-82
2022/01/19 07:25:31;;;;;;;18.85;6.30;;;;;;;3.43;52.45;100152.63;4502747;31;20141;-82
2022/01/19 07:27:57;;;;;;;18.08;6.85;;;;;;;3.50;52.40;100145.66;4502703;31;20136;-82
2022/01/19 07:30:24;;;;;;;22.45;6.90;;;;;;;3.65;51.95;100149.91;4502763;31;20127;-82
2022/01/19 07:32:51;;;;;;;21.23;7.15;;;;;;;3.63;51.79;100139.53;4502942;31;20156;-82
2022/01/19 07:35:17;;;;;;;22.27;6.75;;;;;;;3.65;51.91;100139.50;4502727;31;20435;-82
2022/01/19 07:37:43;;;;;;;23.90;7.03;;;;;;;3.69;51.79;100139.50;4488285;31;20104;-82
2022/01/19 07:40:09;;;;;;;18.45;6.78;;;;;;;3.82;51.05;100142.03;4502572;31;20122;-81
2022/01/19 07:42:34;;;;;;;23.45;8.35;;;;;;;3.85;50.63;100127.25;4488022;31;20108;-81
2022/01/19 07:44:59;;;;;;;24.02;7.95;;;;;;;3.74;50.74;100122.06;4488384;31;20391;-82
2022/01/19 07:47:27;;;;;;;23.70;7.53;;;;;;;3.73;51.09;100128.19;4503022;31;20110;-82
2022/01/19 07:49:53;;;;;;;;;;;;;;;3.78;50.78;100125.53;4502736;31;20484;-83
2022/01/19 07:52:18;;;;;;;22.90;7.50;;;;;;;3.80;50.73;100122.94;4482366;31;20035;-83
2022/01/19 07:54:47;;;;;;;22.60;8.65;;;;;;;3.78;50.72;100127.28;4478596;31;20084;-83
2022/01/19 07:57:12;;;;;;;23.35;7.72;;;;;;;3.79;51.46;100124.69;4488333;31;20503;-84
2022/01/19 07:59:38;;;;;;;19.62;7.75;;;;;;;3.83;51.17;100134.22;4480874;31;20112;-84
2022/01/19 08:02:04;;;;;;;23.12;7.53;;;;;;;3.81;51.22;100130.75;4492069;31;20503;-83
2022/01/19 08:04:35;;;;;;;24.73;7.97;;;;;;;3.89;50.90;100123.72;4487746;31;20114;-81
2022/01/19 08:07:01;;;;;;;22.10;7.75;;;;;;;3.94;50.89;100124.59;4489091;31;20100;-82
2022/01/19 08:09:26;;;;;;;24.65;8.93;;;;;;;3.90;51.39;100125.47;4497534;31;20392;-84
2022/01/19 08:11:54;;;;;;;23.35;7.97;;;;;;;3.95;51.37;100125.44;4487910;31;20166;-83
2022/01/19 08:14:22;;;;;;;29.00;7.82;;;;;;;4.00;50.83;100114.97;4502111;31;20071;-85
2022/01/19 08:16:48;;;;;;;;;;;;;;;3.91;50.71;100103.72;4489345;31;20634;-85
2022/01/19 08:19:13;;;;;;;25.45;8.38;;;;;;;3.74;50.65;100114.25;4498870;31;19986;-84
2022/01/19 08:21:39;;;;;;;22.90;8.70;;;;;;;4.01;50.22;100107.16;4487752;31;20104;-85
2022/01/19 08:24:05;;;;;;;23.50;7.60;;;;;;;3.97;50.41;100107.19;4473326;31;20395;-84
2022/01/19 08:26:30;;;;;;;26.62;8.68;;;;;;;4.13;50.22;100106.19;4490764;31;20087;-85
2022/01/19 08:28:56;;;;;;;24.63;7.97;;;;;;;4.10;50.37;100103.62;4487589;31;20135;-84
2022/01/19 08:31:22;;;;;;;20.62;7.90;;;;;;;4.24;49.82;100112.19;4484661;31;20096;-82
2022/01/19 08:33:49;;;;;;;20.90;8.68;;;;;;;4.11;50.28;100106.22;4494829;31;20333;-85
2022/01/19 08:36:16;;;;;;;25.30;9.07;;;;;;;4.23;50.16;100112.22;4494591;31;20128;-84
2022/01/19 08:38:42;;;;;;;23.83;8.90;;;;;;;4.28;50.24;100113.03;4488842;31;20149;-85
2022/01/19 08:41:10;;;;;;;22.65;8.50;;;;;;;4.29;50.41;100113.03;4499127;31;20509;-85
2022/01/19 08:43:35;;;;;;;;;;;;;;;4.34;50.63;100105.16;4487657;31;20096;-85
2022/01/19 08:46:01;;;;;;;20.55;7.07;;;;;;;4.47;50.13;100113.78;4493067;31;20036;-85
2022/01/19 08:48:30;;;;;;;20.42;6.87;;;;;;;4.43;49.34;100104.25;4488361;31;20097;-85
2022/01/19 08:50:55;;;;;;;23.38;7.62;;;;;;;4.43;49.24;100106.84;4498869;31;20189;-84
2022/01/19 08:53:24;;;;;;;23.58;6.97;;;;;;;4.41;49.79;100111.22;4490041;31;20092;-84
2022/01/19 08:55:50;;;;;;;24.05;7.07;;;;;;;4.40;49.64;100109.47;4487571;31;20431;-87
2022/01/19 08:58:16;;;;;;;18.55;6.37;;;;;;;4.51;49.21;100098.06;4487083;31;20527;-88
2022/01/19 09:00:44;;;;;;;20.55;7.15;;;;;;;4.63;48.76;100096.22;4488839;31;20092;-88
2022/01/19 09:03:10;;;;;;;;;;;;;;;4.59;49.25;100089.31;4463380;31;20586;-85
2022/01/19 09:05:35;;;;;;;23.25;7.50;;;;;;;4.65;49.70;100084.87;4503139;31;19967;-87
2022/01/19 09:08:03;;;;;;;21.58;7.18;;;;;;;4.59;49.81;100082.34;4494834;31;20093;-86
2022/01/19 09:10:29;;;;;;;21.80;7.32;;;;;;;4.67;49.65;100095.31;4499161;31;20153;-87
2022/01/19 09:12:54;;;;;;;24.55;7.72;;;;;;;4.83;49.09;100096.03;4489192;31;20092;-87
2022/01/19 09:15:23;;;;;;;26.30;7.68;;;;;;;4.79;48.96;100082.16;4499641;31;20123;-87
2022/01/19 09:17:49;;;;;;;20.83;7.78;;;;;;;4.90;48.94;100085.50;4477660;31;20225;-87
2022/01/19 09:20:15;;;;;;;21.87;8.48;;;;;;;4.91;48.81;100083.78;4483277;31;20104;-86
2022/01/19 09:22:41;;;;;;;21.15;7.47;;;;;;;5.00;48.75;100088.88;4473540;32;20088;-87
2022/01/19 09:25:10;;;;;;;23.42;8.15;;;;;;;5.05;48.74;100087.09;4490255;31;20446;-87
2022/01/19 09:27:38;;;;;;;23.00;8.50;;;;;;;5.22;48.17;100096.50;4497624;31;20134;-86
2022/01/19 09:30:09;;;;;;;20.83;8.18;;;;;;;5.17;48.49;100088.69;4496411;31;20092;-87
2022/01/19 09:32:34;;;;;;;24.15;9.10;;;;;;;5.19;48.73;100076.47;4476255;31;20470;-87
2022/01/19 09:35:06;;;;;;;29.92;9.98;;;;;;;5.22;48.99;100086.03;4486833;31;20118;-88
2022/01/19 09:37:37;;;;;;;37.10;9.70;;;;;;;5.31;48.38;100078.06;4492739;31;20088;-87
2022/01/19 09:40:07;;;;;;;22.62;8.88;;;;;;;5.26;49.66;100085.97;4494297;31;20396;-87
2022/01/19 09:42:34;;;;;;;25.62;9.23;;;;;;;5.40;49.10;100077.97;4499218;31;20147;-88
2022/01/19 09:45:00;;;;;;;26.23;9.25;;;;;;;5.44;48.88;100068.34;4489631;31;20160;-86
2022/01/19 09:47:25;;;;;;;24.10;9.38;;;;;;;5.51;48.50;100051.69;4492351;31;20381;-86
2022/01/19 09:49:51;;;;;;;30.30;12.27;;;;;;;5.63;47.77;100048.03;4483676;31;20353;-86
2022/01/19 09:52:16;;;;;;;27.87;10.77;;;;;;;5.59;47.99;100059.44;4471235;32;20127;-87
2022/01/19 10:01:26;;;;;;;29.50;11.60;;;;;;;5.50;48.91;100042.12;4498005;31;20131;-85
2022/01/19 10:03:52;;;;;;;23.15;11.77;;;;;;;5.59;49.07;100036.75;4493526;31;20120;-83
2022/01/19 10:06:23;;;;;;;23.80;10.30;;;;;;;5.66;49.15;100025.34;4492258;31;20139;-84
2022/01/19 10:08:57;;;;;;;30.10;11.57;;;;;;;5.77;48.71;100012.09;4495297;31;20118;-84
2022/01/19 10:16:58;;;;;;;26.48;10.38;;;;;;;5.83;48.41;100008.53;4484327;31;20130;-84
2022/01/19 10:17:08;;;;;;;30.15;10.63;;;;;;;5.95;47.54;99994.37;4497373;31;20078;-85
2022/01/19 10:19:38;;;;;;;27.98;10.02;;;;;;;5.96;47.75;99993.53;4496165;31;20139;-85
2022/01/19 10:22:12;;;;;;;27.55;11.52;;;;;;;5.95;47.68;99974.38;4493900;31;20104;-85
2022/01/19 10:24:47;;;;;;;27.37;10.63;;;;;;;6.01;47.56;99971.66;4494176;31;20104;-85
2022/01/19 10:27:31;;;;;;;25.00;10.82;;;;;;;6.08;47.39;99975.00;4471850;32;20096;-84
2022/01/19 10:30:02;;;;;;;32.03;11.23;;;;;;;6.09;47.35;99966.28;4496764;31;20126;-85
2022/01/19 10:32:29;;;;;;;26.25;11.35;;;;;;;6.04;47.67;99961.13;4497305;31;20118;-85
2022/01/19 10:34:55;;;;;;;26.17;10.45;;;;;;;6.13;47.21;99954.03;4487923;31;21140;-84
2022/01/19 10:37:23;;;;;;;27.50;10.93;;;;;;;6.15;46.79;99947.87;4487697;31;20462;-85
2022/01/19 10:39:49;;;;;;;23.87;9.95;;;;;;;6.14;46.81;99942.66;4486583;31;20108;-84
2022/01/19 10:42:18;;;;;;;25.20;9.73;;;;;;;6.20;46.59;99929.47;4491374;31;20116;-86
2022/01/19 10:44:50;;;;;;;26.90;10.13;;;;;;;6.26;46.09;99931.97;4488090;31;20159;-85
2022/01/19 10:47:18;;;;;;;24.73;10.13;;;;;;;6.21;46.43;99925.97;4495365;31;20157;-85
2022/01/19 10:49:55;;;;;;;25.25;10.63;;;;;;;6.26;46.48;99911.06;4488231;31;20131;-85
2022/01/19 10:52:29;;;;;;;29.92;10.50;;;;;;;6.37;46.18;99916.91;4497763;31;20174;-86
2022/01/19 10:54:57;;;;;;;25.65;10.80;;;;;;;6.52;45.60;99915.75;4487867;31;20869;-83
2022/01/19 10:57:22;;;;;;;23.58;10.25;;;;;;;6.53;45.37;99904.41;4488388;31;20092;-86
2022/01/19 10:59:49;;;;;;;27.55;10.25;;;;;;;6.54;45.67;99897.41;4489318;31;20147;-86
2022/01/19 11:02:15;;;;;;;24.30;10.15;;;;;;;6.56;45.69;99893.84;4492889;31;20182;-87
2022/01/19 11:04:42;;;;;;;27.70;10.55;;;;;;;6.58;46.15;99899.06;4476623;32;20097;-85
2022/01/19 11:07:11;;;;;;;28.80;10.48;;;;;;;6.67;46.17;99898.88;4496957;31;20079;-87
2022/01/19 11:09:46;;;;;;;25.98;11.35;;;;;;;6.54;46.64;99884.31;4499904;31;20505;-86
2022/01/19 11:12:15;;;;;;;27.95;10.40;;;;;;;6.55;46.63;99875.56;4473248;32;20130;-88
2022/01/19 11:14:41;;;;;;;26.00;10.88;;;;;;;6.54;46.99;99873.84;4488884;31;20443;-87
2022/01/19 11:17:08;;;;;;;31.87;11.05;;;;;;;6.64;46.86;99870.13;4498659;31;20124;-87
2022/01/19 11:19:43;;;;;;;39.23;12.30;;;;;;;6.65;47.29;99870.09;4488580;31;20108;-87
2022/01/19 11:22:14;;;;;;;25.50;11.10;;;;;;;6.75;47.04;99860.28;4485725;31;20495;-87
2022/01/19 11:25:05;;;;;;;29.48;10.30;;;;;;;6.72;46.74;99852.50;4487416;31;20108;-84
2022/01/19 11:27:43;;;;;;;33.10;11.38;;;;;;;6.86;46.80;99852.22;4491324;31;20081;-84
2022/01/19 11:30:13;;;;;;;26.87;10.57;;;;;;;6.92;46.86;99851.22;4487969;31;20127;-85
2022/01/19 11:32:39;;;;;;;25.02;11.00;;;;;;;6.93;46.46;99845.94;4488140;31;20474;-84
2022/01/19 11:35:06;;;;;;;25.08;10.18;;;;;;;6.89;46.52;99845.16;4488240;31;20092;-85
2022/01/19 11:37:41;;;;;;;26.87;10.03;;;;;;;6.93;46.52;99834.59;4490743;31;20106;-85
2022/01/19 11:40:18;;;;;;;27.48;9.57;;;;;;;6.92;46.78;99828.50;4499593;31;20184;-85
2022/01/19 11:42:44;;;;;;;23.60;8.07;;;;;;;6.99;45.97;99823.97;4488227;31;20096;-84
2022/01/19 11:45:37;;;;;;;20.00;8.35;;;;;;;7.03;45.58;99816.03;4502452;31;20496;-83
2022/01/19 11:48:15;;;;;;;27.25;10.35;;;;;;;7.06;45.81;99808.06;4472633;31;20167;-86
2022/01/19 11:50:42;;;;;;;22.85;8.73;;;;;;;7.04;46.20;99814.25;4481305;31;20566;-84
2022/01/19 11:53:10;;;;;;;21.08;7.87;;;;;;;7.18;46.04;99811.28;4498717;31;20080;-84
2022/01/19 11:55:36;;;;;;;19.33;7.43;;;;;;;7.14;45.75;99804.41;4490150;31;20122;-85
2022/01/19 11:58:20;;;;;;;18.30;7.12;;;;;;;7.16;44.72;99794.75;4486028;31;20084;-85
2022/01/19 12:00:48;;;;;;;21.50;7.55;;;;;;;7.15;44.90;99780.78;4487852;31;20167;-85
2022/01/19 12:03:16;;;;;;;21.80;7.12;;;;;;;7.14;45.12;99792.16;4502411;31;20088;-85
2022/01/19 12:05:42;;;;;;;21.98;7.32;;;;;;;7.21;45.23;99785.88;4501639;31;20080;-85
2022/01/19 12:08:24;;;;;;;22.62;7.68;;;;;;;7.26;45.00;99770.91;4487732;31;20112;-83
2022/01/19 12:10:52;;;;;;;17.62;7.55;;;;;;;7.22;44.73;99782.38;4495298;31;20534;-84
2022/01/19 12:13:17;;;;;;;;;;;;;;;7.14;45.41;99775.59;4496945;31;20088;-85
2022/01/19 12:16:12;;;;;;;20.62;7.18;;;;;;;7.23;45.40;99764.87;4488147;31;19999;-85
2022/01/19 12:18:43;;;;;;;20.95;7.00;;;;;;;7.27;45.61;99766.53;4492216;31;20076;-83
2022/01/19 12:21:11;;;;;;;22.27;6.30;;;;;;;7.34;45.12;99760.22;4494203;31;20116;-86
2022/01/19 12:23:39;;;;;;;19.98;6.00;;;;;;;7.36;44.63;99761.06;4486891;31;20171;-86
2022/01/19 12:26:06;;;;;;;18.92;7.28;;;;;;;7.35;44.35;99758.47;4499512;31;20088;-87
2022/01/19 12:28:39;;;;;;;19.08;6.80;;;;;;;7.40;44.27;99752.19;4487092;31;20421;-84
2022/01/19 12:31:33;;;;;;;17.58;6.97;;;;;;;7.37;44.24;99760.13;4492656;31;20127;-84
2022/01/19 12:34:04;;;;;;;20.08;6.47;;;;;;;7.27;44.07;99756.87;4485540;31;20160;-85
2022/01/19 12:36:54;;;;;;;18.10;6.32;;;;;;;7.34;44.04;99741.00;4489639;31;20151;-86
2022/01/19 12:39:26;;;;;;;19.15;6.37;;;;;;;7.31;44.26;99739.34;4491324;31;20084;-84
2022/01/19 12:42:14;;;;;;;22.40;6.57;;;;;;;7.38;44.05;99732.16;4498872;31;20122;-84
2022/01/19 12:44:50;;;;;;;21.55;6.57;;;;;;;7.29;44.14;99743.75;4487984;31;20480;-85
2022/01/19 12:47:38;;;;;;;18.00;6.22;;;;;;;7.30;44.35;99734.97;4497962;31;20115;-88
2022/01/19 12:50:04;;;;;;;16.62;6.10;;;;;;;7.02;44.75;99729.59;4490854;31;20072;-84
2022/01/19 12:52:32;;;;;;;18.15;6.40;;;;;;;7.31;44.37;99728.84;4496399;31;20123;-84
2022/01/19 12:55:11;;;;;;;15.70;6.28;;;;;;;7.29;44.38;99723.62;4494034;31;20100;-84
2022/01/19 12:57:36;;;;;;;19.00;6.00;;;;;;;7.33;44.25;99716.56;4489728;31;20096;-85
2022/01/19 13:00:05;;;;;;;17.73;6.12;;;;;;;7.43;44.27;99714.56;4499000;31;20076;-85
2022/01/19 13:02:30;;;;;;;20.98;6.45;;;;;;;7.42;44.38;99713.69;4474371;31;20104;-84
2022/01/19 13:05:10;;;;;;;15.82;5.75;;;;;;;7.41;44.47;99709.34;4493789;31;20100;-83